Latest Weather Observations for Omeo

IDV60801

Issued at 8:05 pm EDT Wednesday 28 January 2015 (issued every 30 minutes, with the page automatically refreshed every 10 minutes)

About weather observations | Map of weather stations | Latest weather observations for VIC | Other Formats
Station Details ID: 083090 Name: OMEO Lat: -37.10 Lon: 147.60 Height: 689.8 m
Data from the previous 72 hours. | See also: Recent months at Omeo
Date/Time
EDT
Temp
°C
App
Temp
°C
Dew
Point
Rel
Hum
%
Delta-T
°C
Wind Press
QNH
hPa
Press
MSL
hPa
Rain
since 9 am
mm
Dir
 
Spd
km/h
Gust
km/h
Spd
kts
Gust
kts
28/08:00pm 11.1 7.5 10.0 93 0.6 SE 19 30 10 16 1019.4 1016.5 4.2
28/07:30pm 11.1 7.0 10.0 93 0.6 SE 22 37 12 20 1019.2 1016.3 4.2
28/07:00pm 11.7 8.6 10.4 92 0.7 SE 17 28 9 15 1019.1 1016.2 3.4
28/06:30pm 11.8 8.1 10.2 90 0.8 SE 20 32 11 17 1018.8 1015.9 3.0
28/06:00pm 12.1 8.1 10.3 89 1.0 SE 22 37 12 20 1018.7 1015.8 3.0
28/05:30pm 13.1 9.0 10.1 82 1.6 SE 22 33 12 18 1018.4 1015.4 2.4
28/05:00pm 13.3 10.8 11.0 86 1.3 SSE 15 28 8 15 1018.5 1015.5 2.0
28/04:30pm 14.1 12.0 11.1 82 1.6 SE 13 19 7 10 1018.6 1015.7 1.8
28/04:00pm 14.2 11.6 11.9 86 1.3 SSE 17 28 9 15 1018.6 1015.7 1.8
28/03:30pm 14.0 8.7 9.8 76 2.2 SE 28 44 15 24 1018.6 1015.7 1.0
28/03:00pm 17.4 14.7 13.5 78 2.3 SE 20 35 11 19 1018.4 1015.4 1.0
28/02:30pm 13.4 10.5 11.1 86 1.3 SE 17 30 9 16 1018.8 1015.9 1.0
28/02:00pm 15.6 12.5 10.2 70 2.9 SE 17 24 9 13 1018.6 1015.7 0.6
28/01:30pm 17.6 15.2 12.5 72 2.9 SE 17 35 9 19 1018.8 1015.9 0.6
28/01:00pm 15.6 13.2 12.5 82 1.8 SE 17 24 9 13 1019.1 1016.2 0.6
28/12:30pm 15.3 12.9 11.3 77 2.2 SE 15 24 8 13 1019.0 1016.1 0.6
28/12:00pm 15.8 13.3 13.6 87 1.3 SE 19 32 10 17 1019.3 1016.4 0.6
28/11:30am 12.9 9.7 11.3 90 0.9 SE 19 30 10 16 1019.4 1016.5 0.6
28/11:00am 13.4 10.7 11.8 90 0.9 SE 17 26 9 14 1019.4 1016.5 0.6
28/10:30am 12.4 10.6 11.0 91 0.8 SSE 11 20 6 11 1019.4 1016.5 0.4
28/10:00am 12.5 10.8 11.2 92 0.7 SSE 11 17 6 9 1019.2 1016.3 0.4
28/09:30am 12.2 10.9 11.3 94 0.5 SSE 9 17 5 9 1019.1 1016.2 0.4
28/09:00am 11.7 9.9 10.8 94 0.5 SSE 11 17 6 9 1019.0 1016.1 0.6
28/08:30am 11.6 10.2 10.8 95 0.4 SE 9 17 5 9 1018.8 1015.9 0.6
28/08:00am 11.2 9.7 10.4 95 0.4 SE 9 13 5 7 1018.5 1015.5 0.6
28/07:30am 11.1 10.1 10.3 95 0.4 SSE 6 11 3 6 1018.3 1015.3 0.6
28/07:00am 11.0 9.8 10.4 96 0.3 S 7 15 4 8 1017.8 1014.9 0.6
28/06:30am 10.7 9.4 10.1 96 0.3 SSE 7 13 4 7 1017.6 1014.7 0.6
28/06:00am 10.6 8.9 10.0 96 0.3 S 9 17 5 9 1017.4 1014.5 0.6
28/05:30am 10.4 8.7 9.8 96 0.3 S 9 19 5 10 1017.2 1014.2 0.6
28/05:00am 10.3 8.6 9.7 96 0.3 SSW 9 17 5 9 1017.0 1014.0 0.6
28/04:30am 10.4 9.1 9.8 96 0.3 SSW 7 11 4 6 1017.1 1014.1 0.6
28/04:00am 10.3 8.6 9.7 96 0.3 SSW 9 15 5 8 1016.9 1013.9 0.4
28/03:30am 10.3 8.9 9.7 96 0.3 SSW 7 11 4 6 1017.0 1014.0 0.4
28/03:00am 10.3 8.5 9.5 95 0.4 S 9 13 5 7 1017.2 1014.2 0.4
28/02:30am 10.3 8.9 9.5 95 0.4 S 7 13 4 7 1017.4 1014.5 0.4
28/02:00am 10.3 8.9 9.5 95 0.4 SSW 7 15 4 8 1017.6 1014.7 0.0
28/01:30am 10.4 9.0 9.5 94 0.5 S 7 17 4 9 1017.6 1014.7 0.0
28/01:00am 10.4 9.0 9.5 94 0.5 S 7 13 4 7 1017.8 1014.9 0.0
28/12:30am 10.4 9.0 9.5 94 0.5 SSW 7 11 4 6 1017.9 1015.0 0.0
28/12:00am 10.4 8.6 9.5 94 0.5 S 9 13 5 7 1017.9 1015.0 0.0
 
Date/Time
EDT
Temp
°C
App
Temp
°C
Dew
Point
Rel
Hum
%
Delta-T
°C
Wind Press
QNH
hPa
Press
MSL
hPa
Rain
since 9 am
mm
Dir
 
Spd
km/h
Gust
km/h
Spd
kts
Gust
kts
27/11:30pm 10.5 8.3 9.4 93 0.6 S 11 17 6 9 1018.1 1015.1 0.0
27/11:00pm 10.7 9.3 9.6 93 0.6 S 7 13 4 7 1017.9 1015.0 0.0
27/10:30pm 10.7 9.4 9.8 94 0.5 S 7 15 4 8 1018.1 1015.1 0.0
27/10:00pm 10.7 9.4 9.8 94 0.5 SSE 7 13 4 7 1017.9 1015.0 0.0
27/09:30pm 10.7 9.4 9.8 94 0.5 SSE 7 17 4 9 1017.6 1014.7 0.0
27/09:00pm 10.9 10.2 10.0 94 0.5 SSE 4 7 2 4 1017.3 1014.4 0.0
27/08:30pm 10.7 8.2 9.8 94 0.5 SSE 13 19 7 10 1017.2 1014.2 0.0
27/08:00pm 11.0 8.9 9.9 93 0.6 SE 11 19 6 10 1017.1 1014.1 0.0
27/07:30pm 11.3 9.3 10.2 93 0.6 SSE 11 17 6 9 1016.7 1013.7 0.0
27/07:00pm 11.5 9.1 10.1 91 0.7 SE 13 19 7 10 1016.4 1013.5 0.0
27/06:30pm 12.1 9.4 10.3 89 1.0 SE 15 22 8 12 1016.1 1013.2 0.0
27/06:00pm 12.8 10.1 10.2 84 1.4 SE 15 22 8 12 1015.9 1012.9 0.0
27/05:30pm 12.8 10.1 10.2 84 1.4 SSE 15 24 8 13 1016.0 1013.1 0.0
27/05:00pm 13.5 10.7 9.9 79 1.9 SE 15 22 8 12 1016.0 1013.1 0.0
27/04:30pm 13.7 11.2 9.6 76 2.2 SSE 13 22 7 12 1015.9 1012.9 0.0
27/04:00pm 14.3 10.6 9.3 72 2.7 SE 19 35 10 19 1015.9 1012.9 0.0
27/03:30pm 16.9 13.0 9.6 62 4.0 SE 20 33 11 18 1015.7 1012.7 0.0
27/03:00pm 18.1 13.9 9.7 58 4.6 SE 22 35 12 19 1015.6 1012.6 0.0
27/02:30pm 19.2 15.5 10.2 56 5.0 SE 20 33 11 18 1015.6 1012.6 0.0
27/02:00pm 19.3 15.7 10.0 55 5.1 SE 19 30 10 16 1015.7 1012.7 0.0
27/01:30pm 18.5 14.4 8.5 52 5.4 SE 20 32 11 17 1015.7 1012.7 0.0
27/01:00pm 19.7 16.0 9.6 52 5.6 SE 19 30 10 16 1015.8 1012.8 0.0
27/12:30pm 17.5 13.5 9.2 58 4.5 SE 20 30 11 16 1016.2 1013.3 0.0
27/12:00pm 18.2 14.5 9.3 56 4.8 SE 19 32 10 17 1016.1 1013.2 0.0
27/11:30am 17.1 13.5 8.5 57 4.6 SE 17 26 9 14 1016.2 1013.3 0.0
27/11:00am 18.7 16.0 8.9 53 5.3 SE 13 22 7 12 1016.2 1013.3 0.0
27/10:30am 17.7 14.5 8.6 55 4.9 SE 15 20 8 11 1016.3 1013.4 0.0
27/10:00am 17.6 14.8 8.7 56 4.8 SE 13 20 7 11 1016.4 1013.5 0.0
27/09:30am 15.9 14.1 7.9 59 4.2 SE 7 15 4 8 1016.6 1013.6 0.0
27/09:00am 13.9 11.9 7.0 63 3.5 S 7 13 4 7 1016.7 1013.7 0.0
27/08:30am 13.7 11.5 7.9 68 3.0 SE 9 15 5 8 1016.7 1013.7 0.0
27/08:00am 11.6 9.6 7.3 75 2.1 SE 7 13 4 7 1016.6 1013.6 0.0
27/07:30am 10.7 8.6 6.8 77 1.9 SE 7 11 4 6 1016.4 1013.5 0.0
27/07:00am 10.4 8.0 7.1 80 1.6 SE 9 15 5 8 1016.3 1013.4 0.0
27/06:30am 10.2 8.1 6.7 79 1.7 SE 7 11 4 6 1016.1 1013.2 0.0
27/06:00am 10.2 8.2 6.9 80 1.6 SSE 7 13 4 7 1016.0 1013.1 0.0
27/05:30am 10.1 8.0 6.8 80 1.6 SE 7 9 4 5 1015.9 1012.9 0.0
27/05:00am 10.2 8.1 6.7 79 1.7 SSE 7 11 4 6 1015.8 1012.8 0.0
27/04:30am 10.4 8.3 6.7 78 1.8 SSE 7 11 4 6 1015.8 1012.8 0.0
27/04:00am 10.5 8.4 6.6 77 1.9 SSE 7 9 4 5 1016.0 1013.1 0.0
27/03:30am 10.6 8.1 6.7 77 1.9 SSE 9 13 5 7 1016.2 1013.3 0.0
27/03:00am 10.5 8.6 6.8 78 1.8 SSE 6 7 3 4 1016.6 1013.6 0.0
27/02:30am 10.6 8.2 6.9 78 1.8 SSE 9 13 5 7 1016.8 1013.8 0.0
27/02:00am 10.6 8.5 6.7 77 1.9 SSE 7 11 4 6 1016.8 1013.8 0.0
27/01:30am 10.8 8.4 7.1 78 1.8 SSE 9 13 5 7 1017.2 1014.2 0.0
27/01:00am 10.8 8.4 7.1 78 1.8 SSE 9 15 5 8 1017.3 1014.4 0.0
27/12:30am 10.8 8.4 7.1 78 1.8 S 9 15 5 8 1017.4 1014.5 0.0
27/12:00am 10.8 8.4 6.9 77 1.9 SSE 9 17 5 9 1017.6 1014.7 0.0
 
Date/Time
EDT
Temp
°C
App
Temp
°C
Dew
Point
Rel
Hum
%
Delta-T
°C
Wind Press
QNH
hPa
Press
MSL
hPa
Rain
since 9 am
mm
Dir
 
Spd
km/h
Gust
km/h
Spd
kts
Gust
kts
26/11:30pm 10.8 7.6 6.7 76 2.0 SSE 13 20 7 11 1017.6 1014.7 0.0
26/11:00pm 10.9 7.3 6.6 75 2.1 SSE 15 22 8 12 1017.6 1014.7 0.0
26/10:30pm 11.0 7.8 6.7 75 2.1 SSE 13 22 7 12 1017.6 1014.7 0.0
26/10:00pm 11.2 8.0 6.7 74 2.2 SSE 13 24 7 13 1017.7 1014.8 0.0
26/09:30pm 11.3 7.7 6.8 74 2.2 SSE 15 26 8 14 1017.6 1014.7 0.0
26/09:00pm 11.5 7.1 6.6 72 2.4 SSE 19 30 10 16 1017.2 1014.2 0.0
26/08:30pm 11.8 7.7 6.3 69 2.7 SE 17 26 9 14 1017.0 1014.0 0.0
26/08:00pm 12.1 7.6 6.2 67 2.9 SE 19 30 10 16 1016.9 1013.9 0.0
26/07:30pm 12.5 8.0 6.1 65 3.1 SE 19 32 10 17 1016.4 1013.5 0.0
26/07:00pm 13.1 8.3 5.8 61 3.6 SE 20 30 11 16 1015.9 1012.9 0.0
26/06:30pm 15.1 9.6 6.1 55 4.5 SE 24 35 13 19 1015.4 1012.4 0.0
26/06:00pm 15.1 10.4 6.1 55 4.5 SE 20 35 11 19 1015.2 1012.2 0.0
26/05:30pm 14.8 9.6 5.3 53 4.7 SE 22 33 12 18 1015.1 1012.1 0.0
26/05:00pm 15.6 11.0 5.5 51 5.0 SSE 19 28 10 15 1015.0 1012.0 0.0
26/04:30pm 15.9 11.0 5.2 49 5.3 SE 20 35 11 19 1015.2 1012.2 0.0
26/04:00pm 16.2 11.4 5.5 49 5.3 SE 20 30 11 16 1015.1 1012.1 0.0
26/03:30pm 16.6 11.7 5.3 47 5.6 SE 20 32 11 17 1015.1 1012.1 0.0
26/03:00pm 17.4 12.6 5.7 46 5.9 SE 20 35 11 19 1015.2 1012.2 0.0
26/02:30pm 17.6 12.7 4.9 43 6.3 SE 20 32 11 17 1015.2 1012.2 0.0
26/02:00pm 19.6 15.1 6.0 41 7.0 SE 19 30 10 16 1015.1 1012.1 0.0
26/01:30pm 19.1 14.4 5.2 40 7.0 SE 19 30 10 16 1015.4 1012.4 0.0
26/01:00pm 17.7 13.1 3.9 40 6.7 SSE 17 28 9 15 1015.5 1012.5 0.0
26/12:30pm 17.7 14.2 5.3 44 6.2 ESE 13 24 7 13 1015.7 1012.7 0.0
26/12:00pm 17.6 14.0 4.9 43 6.3 ESE 13 24 7 13 1016.0 1013.1 0.0
26/11:30am 15.3 11.6 4.7 49 5.2 SE 13 24 7 13 1016.0 1013.1 0.0
26/11:00am 15.9 11.8 4.6 47 5.5 SE 15 24 8 13 1016.2 1013.3 0.0
26/10:30am 15.3 11.7 4.9 50 5.1 ESE 13 26 7 14 1016.2 1013.3 0.0
26/10:00am 13.5 9.8 4.4 54 4.3 ESE 13 22 7 12 1016.3 1013.4 0.0
26/09:30am 13.0 9.3 4.2 55 4.2 ESE 13 20 7 11 1016.2 1013.3 0.0
26/09:00am 12.3 8.6 4.3 58 3.8 SE 13 22 7 12 1016.2 1013.3 0.0
26/08:30am 11.0 7.0 4.7 65 3.0 SE 15 24 8 13 1016.1 1013.2 0.0
26/08:00am 10.0 6.3 4.4 68 2.6 SSE 13 19 7 10 1015.9 1012.9 0.0
26/07:30am 9.2 6.7 4.6 73 2.1 S 7 13 4 7 1015.5 1012.5 0.0
26/07:00am 8.6 5.6 4.2 74 2.0 SSW 9 15 5 8 1015.3 1012.3 0.0
26/06:30am 8.6 5.6 4.2 74 2.0 SSW 9 13 5 7 1015.0 1012.0 0.0
26/06:00am 8.7 6.1 4.3 74 2.0 S 7 11 4 6 1014.5 1011.5 0.0
26/05:30am 9.0 6.5 4.6 74 2.0 SSE 7 15 4 8 1014.1 1011.1 0.0
26/05:00am 9.0 5.3 4.6 74 2.0 SE 13 19 7 10 1013.8 1010.8 0.0
26/04:30am 9.4 5.8 4.8 73 2.1 SE 13 19 7 10 1013.5 1010.5 0.0
26/04:00am 9.7 5.7 4.9 72 2.2 SSE 15 22 8 12 1013.3 1010.3 0.0
26/03:30am 10.1 6.6 5.5 73 2.2 SE 13 20 7 11 1013.2 1010.2 0.0
26/03:00am 10.2 6.7 5.6 73 2.2 SSE 13 20 7 11 1013.1 1010.1 0.0
26/02:30am 10.4 7.4 6.0 74 2.1 SE 11 15 6 8 1012.9 1009.9 0.0
26/02:00am 10.4 7.4 6.0 74 2.1 SE 11 17 6 9 1013.0 1010.0 0.0
26/01:30am 10.5 7.1 5.9 73 2.2 SSE 13 20 7 11 1013.0 1010.0 0.0
26/01:00am 10.7 7.3 6.1 73 2.2 SE 13 20 7 11 1012.9 1009.9 0.0
26/12:30am 10.7 7.4 6.3 74 2.1 SE 13 17 7 9 1013.0 1010.0 0.0
26/12:00am 10.8 7.5 6.2 73 2.2 SE 13 19 7 10 1012.9 1009.9 0.0
 
Date/Time
EDT
Temp
°C
App
Temp
°C
Dew
Point
Rel
Hum
%
Delta-T
°C
Wind Press
QNH
hPa
Press
MSL
hPa
Rain
since 9 am
mm
Dir
 
Spd
km/h
Gust
km/h
Spd
kts
Gust
kts
25/11:30pm 10.6 6.8 6.0 73 2.2 SE 15 20 8 11 1012.8 1009.8 0.0
25/11:00pm 11.7 9.1 6.2 69 2.7 SSE 9 17 5 9 1012.8 1009.8 0.0
25/10:30pm 12.3 8.4 7.0 70 2.6 SE 17 28 9 15 1012.6 1009.6 0.0
25/10:00pm 12.6 8.8 7.7 72 2.5 SE 17 32 9 17 1012.2 1009.2 0.0
25/09:30pm 12.6 8.9 8.1 74 2.3 SE 17 28 9 15 1011.6 1008.6 0.0
25/09:00pm 12.6 9.7 8.1 74 2.3 SE 13 24 7 13 1011.3 1008.3 0.0
25/08:30pm 13.2 9.5 8.1 71 2.6 SE 17 26 9 14 1010.6 1007.5 0.0

Other Formats:

Comma delimited format used in spreadsheet applications
http://www.bom.gov.au/fwo/IDV60801/IDV60801.94908.axf

JavaScript Object Notation format (JSON) in row-major order
http://www.bom.gov.au/fwo/IDV60801/IDV60801.94908.json